createdAt,value
2022-09-24T00:01:52.015Z,95782.83
2022-09-24T00:04:21.168Z,95780.88
2022-09-24T00:06:49.315Z,95779.52
2022-09-24T00:09:19.626Z,95782.50
2022-09-24T00:11:49.788Z,95780.45
2022-09-24T00:14:18.392Z,95779.54
2022-09-24T00:16:46.621Z,95779.29
2022-09-24T00:19:14.550Z,95777.92
2022-09-24T00:21:43.500Z,95777.57
2022-09-24T00:24:41.674Z,95779.09
2022-09-24T00:27:09.878Z,95777.94
2022-09-24T00:29:37.780Z,95776.64
2022-09-24T00:32:06.216Z,95777.52
2022-09-24T00:34:34.544Z,95773.63
2022-09-24T00:37:03.117Z,95765.04
2022-09-24T00:39:31.141Z,95768.41
2022-09-24T00:41:59.213Z,95769.23
2022-09-24T00:44:42.622Z,95768.52
2022-09-24T00:47:17.538Z,95764.50
2022-09-24T00:49:48.237Z,95765.33
2022-09-24T00:52:18.128Z,95763.75
2022-09-24T00:54:46.954Z,95768.98
2022-09-24T00:57:14.992Z,95770.63
2022-09-24T00:59:44.295Z,95769.13
2022-09-24T01:02:12.944Z,95770.70
2022-09-24T01:04:41.459Z,95764.39
2022-09-24T01:07:09.464Z,95762.38
2022-09-24T01:09:37.418Z,95764.46
2022-09-24T01:12:05.271Z,95766.22
2022-09-24T01:14:52.173Z,95758.90
2022-09-24T01:17:29.348Z,95755.23
2022-09-24T01:20:29.943Z,95751.23
2022-09-24T01:22:57.773Z,95749.31
2022-09-24T01:25:59.600Z,95748.30
2022-09-24T01:28:52.515Z,95748.23
2022-09-24T01:31:30.787Z,95749.25
2022-09-24T01:34:02.084Z,95748.90
2022-09-24T01:36:31.571Z,95752.23
2022-09-24T01:38:59.747Z,95750.08
2022-09-24T01:41:28.544Z,95750.95
2022-09-24T01:43:58.863Z,95751.46
2022-09-24T01:46:27.218Z,95756.52
2022-09-24T01:48:55.419Z,95756.20
2022-09-24T01:51:23.501Z,95753.40
2022-09-24T01:53:54.865Z,95754.23
2022-09-24T01:56:26.089Z,95750.59
2022-09-24T01:59:00.925Z,95748.65
2022-09-24T02:01:40.585Z,95748.66
2022-09-24T02:04:12.428Z,95747.01
2022-09-24T02:06:42.982Z,95745.83
2022-09-24T02:09:29.581Z,95739.48
2022-09-24T02:12:01.533Z,95740.39
2022-09-24T02:14:31.833Z,95743.28
2022-09-24T02:17:00.894Z,95743.31
2022-09-24T02:19:29.747Z,95746.66
2022-09-24T02:21:58.369Z,95747.40
2022-09-24T02:24:31.018Z,95749.40
2022-09-24T02:26:59.393Z,95751.13
2022-09-24T02:29:27.512Z,95751.73
2022-09-24T02:31:57.087Z,95753.69
2022-09-24T02:34:32.520Z,95752.60
2022-09-24T02:37:08.785Z,95746.81
2022-09-24T02:39:37.002Z,95746.52
2022-09-24T02:42:06.265Z,95743.77
2022-09-24T02:44:34.648Z,95743.34
2022-09-24T02:47:03.130Z,95742.52
2022-09-24T02:49:31.002Z,95738.96
2022-09-24T02:51:59.287Z,95733.23
2022-09-24T02:54:27.346Z,95738.59
2022-09-24T02:56:55.419Z,95737.30
2022-09-24T02:59:23.697Z,95740.34
2022-09-24T03:01:51.976Z,95744.91
2022-09-24T03:04:20.406Z,95745.66
2022-09-24T03:06:48.584Z,95746.08
2022-09-24T03:09:16.536Z,95748.77
2022-09-24T03:11:44.479Z,95752.75
2022-09-24T03:14:12.292Z,95752.41
2022-09-24T03:16:40.211Z,95744.96
2022-09-24T03:19:08.149Z,95744.68
2022-09-24T03:21:36.160Z,95743.25
2022-09-24T03:24:04.511Z,95740.48
2022-09-24T03:26:33.456Z,95741.66
2022-09-24T03:29:01.600Z,95741.50
2022-09-24T03:31:29.865Z,95744.59
2022-09-24T03:33:58.059Z,95745.53
2022-09-24T03:36:26.872Z,95747.54
2022-09-24T03:38:56.671Z,95749.45
2022-09-24T03:41:27.195Z,95750.27
2022-09-24T03:43:55.849Z,95747.58
2022-09-24T03:46:30.316Z,95747.02
2022-09-24T03:49:00.313Z,95746.57
2022-09-24T03:51:28.406Z,95743.69
2022-09-24T03:53:56.392Z,95747.98
2022-09-24T03:56:24.438Z,95744.42
2022-09-24T03:58:52.538Z,95744.44
2022-09-24T04:01:21.835Z,95742.25
2022-09-24T04:03:50.574Z,95744.20
2022-09-24T04:06:23.337Z,95747.06
2022-09-24T04:08:54.163Z,95755.98
2022-09-24T04:11:22.593Z,95753.59
2022-09-24T04:13:50.815Z,95751.88
2022-09-24T04:16:19.070Z,95755.80
2022-09-24T04:18:48.209Z,95755.52
2022-09-24T04:21:16.331Z,95755.92
2022-09-24T04:23:44.786Z,95755.19
2022-09-24T04:26:12.715Z,95759.61
2022-09-24T04:28:41.165Z,95762.55
2022-09-24T04:31:09.633Z,95762.42
2022-09-24T04:33:38.137Z,95760.56
2022-09-24T04:36:06.105Z,95763.59
2022-09-24T04:38:34.277Z,95762.73
2022-09-24T04:41:09.218Z,95761.68
2022-09-24T04:43:37.342Z,95760.81
2022-09-24T04:46:05.975Z,95759.35
2022-09-24T04:48:34.967Z,95761.55
2022-09-24T04:51:03.684Z,95759.20
2022-09-24T04:53:32.868Z,95762.33
2022-09-24T04:56:00.808Z,95762.12
2022-09-24T04:58:28.803Z,95764.88
2022-09-24T05:00:56.790Z,95765.83
2022-09-24T05:03:24.841Z,95770.09
2022-09-24T05:05:52.715Z,95771.89
2022-09-24T05:08:20.619Z,95776.54
2022-09-24T05:10:48.601Z,95769.77
2022-09-24T05:13:16.519Z,95772.32
2022-09-24T05:15:44.936Z,95771.10
2022-09-24T05:18:13.177Z,95770.47
2022-09-24T05:20:41.183Z,95769.15
2022-09-24T05:23:09.224Z,95766.95
2022-09-24T05:26:00.151Z,95764.71
2022-09-24T05:28:28.512Z,95765.41
2022-09-24T05:30:59.988Z,95766.43
2022-09-24T05:33:28.473Z,95767.27
2022-09-24T05:35:58.209Z,95771.20
2022-09-24T05:38:26.673Z,95770.97
2022-09-24T05:40:55.040Z,95772.36
2022-09-24T05:43:23.886Z,95774.86
2022-09-24T05:45:52.937Z,95775.90
2022-09-24T05:48:21.487Z,95770.30
2022-09-24T05:50:49.519Z,95771.14
2022-09-24T05:53:17.441Z,95770.88
2022-09-24T05:55:45.454Z,95772.23
2022-09-24T05:58:13.605Z,95771.02
2022-09-24T06:00:41.774Z,95773.72
2022-09-24T06:03:12.760Z,95776.98
2022-09-24T06:05:48.772Z,95778.14
2022-09-24T06:08:17.752Z,95781.67
2022-09-24T06:10:47.710Z,95780.04
2022-09-24T06:13:20.964Z,95783.55
2022-09-24T06:15:49.100Z,95789.10
2022-09-24T06:18:17.674Z,95788.88
2022-09-24T06:20:47.069Z,95795.30
2022-09-24T06:23:15.310Z,95798.55
2022-09-24T06:25:43.521Z,95799.88
2022-09-24T06:28:12.377Z,95800.94
2022-09-24T06:30:41.453Z,95800.02
2022-09-24T06:33:10.777Z,95804.03
2022-09-24T06:35:39.874Z,95803.41
2022-09-24T06:38:09.277Z,95800.87
2022-09-24T06:40:37.916Z,95802.21
2022-09-24T06:43:07.001Z,95801.80
2022-09-24T06:45:35.568Z,95801.26
2022-09-24T06:48:04.739Z,95800.48
2022-09-24T06:50:34.587Z,95802.98
2022-09-24T06:53:05.461Z,95799.98
2022-09-24T06:55:34.697Z,95802.96
2022-09-24T06:58:04.637Z,95800.40
2022-09-24T07:00:33.077Z,95799.33
2022-09-24T07:03:01.030Z,95802.27
2022-09-24T07:05:29.244Z,95807.16
2022-09-24T07:07:57.321Z,95804.43
2022-09-24T07:10:27.597Z,95807.27
2022-09-24T07:12:55.755Z,95800.89
2022-09-24T07:15:23.959Z,95800.99
2022-09-24T07:17:56.163Z,95797.49
2022-09-24T07:20:25.078Z,95802.64
2022-09-24T07:22:53.060Z,95807.98
2022-09-24T07:25:21.103Z,95813.93
2022-09-24T07:27:49.584Z,95819.66
2022-09-24T07:30:17.892Z,95818.18
2022-09-24T07:32:45.920Z,95816.83
2022-09-24T07:35:13.889Z,95820.21
2022-09-24T07:37:41.877Z,95819.58
2022-09-24T07:40:10.765Z,95819.30
2022-09-24T07:42:46.421Z,95818.91
2022-09-24T07:45:14.699Z,95813.14
2022-09-24T07:47:43.354Z,95816.89
2022-09-24T07:50:12.413Z,95815.52
2022-09-24T07:52:40.659Z,95811.10
2022-09-24T07:55:08.763Z,95807.60
2022-09-24T07:57:36.805Z,95803.39
2022-09-24T08:00:05.050Z,95805.84
2022-09-24T08:02:40.222Z,95809.73
2022-09-24T08:05:08.603Z,95812.94
2022-09-24T08:07:36.556Z,95816.71
2022-09-24T08:10:05.164Z,95815.59
2022-09-24T08:12:33.858Z,95818.13
2022-09-24T08:15:02.050Z,95823.70
2022-09-24T08:17:31.397Z,95822.73
2022-09-24T08:19:59.909Z,95825.70
2022-09-24T08:22:28.014Z,95827.13
2022-09-24T08:24:58.007Z,95825.16
2022-09-24T08:27:26.616Z,95834.40
2022-09-24T08:29:54.659Z,95832.92
2022-09-24T08:32:22.680Z,95830.26
2022-09-24T08:34:52.667Z,95829.55
2022-09-24T08:37:20.810Z,95829.51
2022-09-24T08:39:48.898Z,95828.40
2022-09-24T08:42:39.674Z,95825.63
2022-09-24T08:45:29.079Z,95827.73
2022-09-24T08:48:00.060Z,95826.98
2022-09-24T08:50:29.354Z,95815.81
2022-09-24T08:53:03.263Z,95813.11
2022-09-24T08:55:36.015Z,95811.27
2022-09-24T08:58:19.346Z,95812.70
2022-09-24T09:00:51.832Z,95806.08
2022-09-24T09:03:35.288Z,95803.34
2022-09-24T09:06:05.580Z,95798.33
2022-09-24T09:09:06.158Z,95795.15
2022-09-24T09:11:37.011Z,95795.13
2022-09-24T09:14:12.356Z,95794.36
2022-09-24T09:16:47.506Z,95796.73
2022-09-24T09:19:16.744Z,95796.12
2022-09-24T09:21:52.760Z,95796.45
2022-09-24T09:24:23.468Z,95800.46
2022-09-24T09:26:56.748Z,95799.86
2022-09-24T09:29:28.219Z,95800.95
2022-09-24T09:32:02.934Z,95799.71
2022-09-24T09:34:36.943Z,95797.13
2022-09-24T09:37:11.142Z,95802.05
2022-09-24T09:39:39.454Z,95799.90
2022-09-24T09:42:16.709Z,95801.98
2022-09-24T09:44:46.325Z,95808.73
2022-09-24T09:47:17.318Z,95811.80
2022-09-24T09:49:47.605Z,95814.33
2022-09-24T09:52:18.327Z,95808.22
2022-09-24T09:54:47.254Z,95810.90
2022-09-24T09:57:23.273Z,95812.20
2022-09-24T09:59:53.704Z,95811.02
2022-09-24T10:02:27.237Z,95807.97
2022-09-24T10:04:56.606Z,95809.05
2022-09-24T10:07:25.604Z,95810.61
2022-09-24T10:10:25.831Z,95806.52
2022-09-24T10:12:55.151Z,95803.77
2022-09-24T10:15:24.944Z,95802.87
2022-09-24T10:17:55.085Z,95804.73
2022-09-24T10:20:27.996Z,95802.09
2022-09-24T10:23:02.469Z,95804.35
2022-09-24T10:25:31.789Z,95802.38
2022-09-24T10:28:19.927Z,95801.92
2022-09-24T10:30:59.397Z,95800.93
2022-09-24T10:33:28.111Z,95805.92
2022-09-24T10:36:07.879Z,95807.85
2022-09-24T10:38:36.075Z,95801.86
2022-09-24T10:41:13.986Z,95800.05
2022-09-24T10:43:50.861Z,95798.40
2022-09-24T10:46:34.244Z,95796.59
2022-09-24T10:49:08.412Z,95793.67
2022-09-24T10:51:42.551Z,95795.20
2022-09-24T10:54:10.705Z,95791.30
2022-09-24T10:56:46.376Z,95792.52
2022-09-24T10:59:33.367Z,95792.91
2022-09-24T11:02:04.306Z,95793.20
2022-09-24T11:04:41.741Z,95790.70
2022-09-24T11:07:28.005Z,95787.06
2022-09-24T11:10:15.114Z,95786.76
2022-09-24T11:12:53.437Z,95788.73
2022-09-24T11:15:40.206Z,95791.70
2022-09-24T11:18:14.476Z,95789.77
2022-09-24T11:21:01.284Z,95785.88
2022-09-24T11:23:52.391Z,95779.35
2022-09-24T11:26:20.464Z,95781.71
2022-09-24T11:28:59.461Z,95782.06
2022-09-24T11:31:37.394Z,95777.01
2022-09-24T11:34:24.489Z,95772.98
2022-09-24T11:37:01.705Z,95773.83
2022-09-24T11:39:44.286Z,95781.89
2022-09-24T11:42:16.911Z,95784.43
2022-09-24T11:45:00.141Z,95779.89
2022-09-24T11:47:46.154Z,95776.83
2022-09-24T11:50:29.512Z,95774.11
2022-09-24T11:52:57.834Z,95776.10
2022-09-24T11:55:32.786Z,95776.03
2022-09-24T11:58:03.913Z,95775.33
2022-09-24T12:00:39.360Z,95773.02
2022-09-24T12:03:16.838Z,95772.96
2022-09-24T12:05:49.738Z,95766.05
2022-09-24T12:08:27.949Z,95761.45
2022-09-24T12:10:58.788Z,95754.40
2022-09-24T12:13:29.729Z,95758.14
2022-09-24T12:16:03.359Z,95759.00
2022-09-24T12:18:57.853Z,95755.45
2022-09-24T12:21:28.969Z,95756.33
2022-09-24T12:24:02.857Z,95757.59
2022-09-24T12:26:35.321Z,95756.32
2022-09-24T12:29:40.619Z,95758.02
2022-09-24T12:32:41.154Z,95754.59
2022-09-24T12:35:09.313Z,95750.67
2022-09-24T12:37:40.172Z,95745.88
2022-09-24T12:40:27.301Z,95748.75
2022-09-24T12:42:57.189Z,95740.09
2022-09-24T12:45:26.408Z,95738.65
2022-09-24T12:47:57.210Z,95736.91
2022-09-24T12:50:27.550Z,95730.17
2022-09-24T12:52:56.035Z,95724.23
2022-09-24T12:55:26.257Z,95722.93
2022-09-24T12:58:03.660Z,95721.90
2022-09-24T13:00:43.297Z,95723.38
2022-09-24T13:03:30.237Z,95722.91
2022-09-24T13:06:00.334Z,95723.27
2022-09-24T13:08:39.157Z,95722.03
2022-09-24T13:11:25.968Z,95727.39
2022-09-24T13:14:13.101Z,95729.27
2022-09-24T13:16:43.418Z,95728.64
2022-09-24T13:19:27.772Z,95728.05
2022-09-24T13:21:57.756Z,95730.42
2022-09-24T13:24:45.953Z,95731.30
2022-09-24T13:27:22.018Z,95730.52
2022-09-24T13:30:02.231Z,95734.83
2022-09-24T13:32:34.592Z,95725.19
2022-09-24T13:35:07.412Z,95719.22
2022-09-24T13:37:38.653Z,95716.10
2022-09-24T13:40:15.594Z,95714.14
2022-09-24T13:42:43.471Z,95718.95
2022-09-24T13:45:17.138Z,95718.39
2022-09-24T13:47:49.998Z,95719.98
2022-09-24T13:50:38.450Z,95719.33
2022-09-24T13:53:12.749Z,95711.47
2022-09-24T13:55:48.217Z,95706.73
2022-09-24T13:58:35.643Z,95710.22
2022-09-24T14:01:10.175Z,95713.41
2022-09-24T14:03:42.039Z,95715.98
2022-09-24T14:06:14.924Z,95716.65
2022-09-24T14:08:44.806Z,95717.22
2022-09-24T14:11:19.901Z,95712.63
2022-09-24T14:13:48.146Z,95710.54
2022-09-24T14:16:18.110Z,95707.85
2022-09-24T14:18:46.145Z,95713.32
2022-09-24T14:21:40.522Z,95717.28
2022-09-24T14:24:28.775Z,95715.77
2022-09-24T14:26:59.648Z,95711.96
2022-09-24T14:29:47.869Z,95709.11
2022-09-24T14:32:25.353Z,95707.34
2022-09-24T14:34:55.075Z,95706.55
2022-09-24T14:37:24.473Z,95710.15
2022-09-24T14:39:57.941Z,95710.66
2022-09-24T14:42:25.946Z,95701.60
2022-09-24T14:44:54.820Z,95701.49
2022-09-24T14:47:30.039Z,95692.54
2022-09-24T14:49:57.888Z,95692.95
2022-09-24T14:52:31.245Z,95694.52
2022-09-24T14:55:19.591Z,95695.90
2022-09-24T14:57:50.222Z,95709.20
2022-09-24T15:00:20.992Z,95716.02
2022-09-24T15:03:00.118Z,95708.23
2022-09-24T15:05:29.145Z,95709.11
2022-09-24T15:08:15.727Z,95699.47
2022-09-24T15:10:52.063Z,95695.39
2022-09-24T15:13:22.999Z,95698.21
2022-09-24T15:16:01.432Z,95697.35
2022-09-24T15:18:29.804Z,95696.20
2022-09-24T15:20:59.872Z,95695.83
2022-09-24T15:23:27.921Z,95689.39
2022-09-24T15:25:56.473Z,95693.34
2022-09-24T15:28:28.854Z,95691.94
2022-09-24T15:30:57.274Z,95689.02
2022-09-24T15:33:25.403Z,95682.58
2022-09-24T15:35:54.157Z,95680.52
2022-09-24T15:38:22.061Z,95687.92
2022-09-24T15:40:51.763Z,95689.08
2022-09-24T15:43:24.226Z,95690.52
2022-09-24T15:45:52.337Z,95686.52
2022-09-24T15:48:20.377Z,95690.51
2022-09-24T15:50:50.558Z,95686.30
2022-09-24T15:53:21.157Z,95686.02
2022-09-24T15:55:52.808Z,95689.63
2022-09-24T15:58:21.742Z,95689.90
2022-09-24T16:00:50.282Z,95691.16
2022-09-24T16:03:20.161Z,95689.33
2022-09-24T16:05:48.842Z,95686.16
2022-09-24T16:08:16.840Z,95687.41
2022-09-24T16:10:45.291Z,95684.92
2022-09-24T16:13:13.935Z,95683.73
2022-09-24T16:15:42.294Z,95680.36
2022-09-24T16:18:13.671Z,95678.19
2022-09-24T16:20:41.953Z,95676.37
2022-09-24T16:23:14.692Z,95673.95
2022-09-24T16:25:53.812Z,95673.50
2022-09-24T16:28:22.235Z,95675.04
2022-09-24T16:30:50.584Z,95675.34
2022-09-24T16:33:18.613Z,95676.95
2022-09-24T16:35:46.560Z,95675.02
2022-09-24T16:38:18.918Z,95670.98
2022-09-24T16:40:52.291Z,95670.71
2022-09-24T16:43:20.457Z,95670.13
2022-09-24T16:45:48.407Z,95668.35
2022-09-24T16:48:16.447Z,95666.08
2022-09-24T16:50:44.390Z,95675.44
2022-09-24T16:53:12.746Z,95675.98
2022-09-24T16:55:40.784Z,95679.07
2022-09-24T16:58:09.968Z,95681.20
2022-09-24T17:00:42.389Z,95682.77
2022-09-24T17:03:11.442Z,95685.23
2022-09-24T17:05:42.694Z,95688.38
2022-09-24T17:08:10.581Z,95690.14
2022-09-24T17:10:42.979Z,95691.75
2022-09-24T17:13:11.207Z,95698.45
2022-09-24T17:15:39.142Z,95702.97
2022-09-24T17:18:07.593Z,95703.67
2022-09-24T17:20:35.632Z,95703.84
2022-09-24T17:23:03.862Z,95710.77
2022-09-24T17:25:31.882Z,95710.04
2022-09-24T17:28:00.273Z,95706.65
2022-09-24T17:30:28.251Z,95707.34
2022-09-24T17:32:56.307Z,95708.94
2022-09-24T17:35:25.199Z,95717.61
2022-09-24T17:37:53.191Z,95725.65
2022-09-24T17:40:24.077Z,95734.42
2022-09-24T17:42:52.884Z,95743.31
2022-09-24T17:45:22.318Z,95745.87
2022-09-24T17:47:56.421Z,95747.62
2022-09-24T17:50:24.367Z,95742.60
2022-09-24T17:52:52.494Z,95741.80
2022-09-24T17:55:20.638Z,95739.92
2022-09-24T17:57:48.466Z,95743.49
2022-09-24T18:00:16.385Z,95744.67
2022-09-24T18:02:44.541Z,95737.88
2022-09-24T18:05:12.635Z,95736.64
2022-09-24T18:07:41.730Z,95736.72
2022-09-24T18:10:10.000Z,95743.84
2022-09-24T18:12:37.887Z,95742.41
2022-09-24T18:15:06.124Z,95747.32
2022-09-24T18:17:34.337Z,95753.27
2022-09-24T18:20:02.608Z,95752.17
2022-09-24T18:22:30.812Z,95755.61
2022-09-24T18:25:06.270Z,95756.15
2022-09-24T18:27:36.752Z,95752.70
2022-09-24T18:30:07.597Z,95747.77
2022-09-24T18:32:37.232Z,95740.42
2022-09-24T18:35:08.040Z,95757.10
2022-09-24T18:37:36.827Z,95759.59
2022-09-24T18:40:05.728Z,95763.42
2022-09-24T18:42:36.557Z,95772.48
2022-09-24T18:45:05.105Z,95770.17
2022-09-24T18:47:35.890Z,95767.30
2022-09-24T18:50:04.261Z,95763.48
2022-09-24T18:52:32.800Z,95759.94
2022-09-24T18:55:01.122Z,95761.21
2022-09-24T18:57:29.248Z,95759.69
2022-09-24T18:59:57.282Z,95766.76
2022-09-24T19:02:26.637Z,95763.72
2022-09-24T19:04:54.952Z,95765.11
2022-09-24T19:07:23.025Z,95763.44
2022-09-24T19:09:51.203Z,95759.81
2022-09-24T19:12:19.827Z,95755.42
2022-09-24T19:14:48.172Z,95754.10
2022-09-24T19:17:16.201Z,95750.92
2022-09-24T19:19:51.568Z,95750.68
2022-09-24T19:22:20.380Z,95744.83
2022-09-24T19:24:48.446Z,95752.41
2022-09-24T19:27:16.522Z,95756.72
2022-09-24T19:29:44.594Z,95753.98
2022-09-24T19:32:12.894Z,95756.70
2022-09-24T19:34:40.945Z,95755.14
2022-09-24T19:37:09.116Z,95757.48
2022-09-24T19:39:37.301Z,95754.84
2022-09-24T19:42:05.370Z,95755.08
2022-09-24T19:44:33.285Z,95757.26
2022-09-24T19:47:01.720Z,95761.27
2022-09-24T19:49:33.932Z,95762.27
2022-09-24T19:52:05.242Z,95764.89
2022-09-24T19:54:33.212Z,95766.11
2022-09-24T19:57:01.195Z,95768.77
2022-09-24T19:59:31.304Z,95770.25
2022-09-24T20:01:59.246Z,95771.63
2022-09-24T20:04:27.350Z,95769.13
2022-09-24T20:06:55.420Z,95769.77
2022-09-24T20:09:23.391Z,95772.84
2022-09-24T20:11:51.568Z,95768.25
2022-09-24T20:14:20.883Z,95768.63
2022-09-24T20:16:48.944Z,95769.64
2022-09-24T20:19:17.150Z,95770.15
2022-09-24T20:21:45.309Z,95772.75
2022-09-24T20:24:13.749Z,95772.03
2022-09-24T20:27:00.473Z,95763.86
2022-09-24T20:29:28.401Z,95763.73
2022-09-24T20:31:57.049Z,95762.34
2022-09-24T20:34:33.377Z,95767.33
2022-09-24T20:37:02.497Z,95767.61
2022-09-24T20:39:31.031Z,95762.02
2022-09-24T20:42:06.196Z,95765.15
2022-09-24T20:44:35.573Z,95764.54
2022-09-24T20:47:03.756Z,95767.52
2022-09-24T20:49:33.374Z,95771.81
2022-09-24T20:52:03.423Z,95775.98
2022-09-24T20:54:33.612Z,95776.23
2022-09-24T20:57:01.630Z,95776.45
2022-09-24T20:59:30.953Z,95767.96
2022-09-24T21:01:59.024Z,95766.30
2022-09-24T21:04:27.561Z,95768.61
2022-09-24T21:06:55.687Z,95767.15
2022-09-24T21:09:23.942Z,95760.45
2022-09-24T21:11:53.296Z,95760.77
2022-09-24T21:14:21.938Z,95757.47
2022-09-24T21:16:50.171Z,95757.16
2022-09-24T21:19:18.597Z,95760.39
2022-09-24T21:21:47.284Z,95760.42
2022-09-24T21:24:15.911Z,95757.53
2022-09-24T21:26:45.599Z,95756.96
2022-09-24T21:29:18.070Z,95756.29
2022-09-24T21:31:47.422Z,95754.77
2022-09-24T21:34:16.967Z,95759.69
2022-09-24T21:36:48.009Z,95755.48
2022-09-24T21:39:17.757Z,95756.68
2022-09-24T21:41:50.111Z,95754.94
2022-09-24T21:44:19.513Z,95754.14
2022-09-24T21:46:52.520Z,95750.73
2022-09-24T21:49:20.792Z,95750.27
2022-09-24T21:51:49.046Z,95752.89
2022-09-24T21:54:17.984Z,95753.29
2022-09-24T21:56:46.829Z,95755.16
2022-09-24T21:59:34.470Z,95759.17
2022-09-24T22:02:03.546Z,95762.20
2022-09-24T22:04:34.499Z,95757.97
2022-09-24T22:07:02.986Z,95754.83
2022-09-24T22:09:32.354Z,95750.92
2022-09-24T22:12:01.818Z,95746.80
2022-09-24T22:14:30.404Z,95751.92
2022-09-24T22:16:58.464Z,95749.15
2022-09-24T22:19:26.504Z,95742.20
2022-09-24T22:21:55.747Z,95736.70
2022-09-24T22:24:23.919Z,95732.69
2022-09-24T22:26:52.502Z,95731.20
2022-09-24T22:29:20.678Z,95733.57
2022-09-24T22:31:48.809Z,95737.69
2022-09-24T22:34:35.765Z,95737.33
2022-09-24T22:37:05.831Z,95728.52
2022-09-24T22:39:34.286Z,95730.04
2022-09-24T22:42:02.489Z,95731.27
2022-09-24T22:44:30.714Z,95732.27
2022-09-24T22:46:58.887Z,95733.52
2022-09-24T22:49:27.283Z,95731.90
2022-09-24T22:51:55.544Z,95735.83
2022-09-24T22:54:24.844Z,95734.64
2022-09-24T22:56:53.073Z,95734.29
2022-09-24T22:59:21.192Z,95734.95
2022-09-24T23:01:49.309Z,95734.63
2022-09-24T23:04:17.440Z,95737.63
2022-09-24T23:06:45.618Z,95736.19
2022-09-24T23:09:13.998Z,95731.73
2022-09-24T23:11:42.278Z,95727.71
2022-09-24T23:14:14.656Z,95729.31
2022-09-24T23:16:43.599Z,95733.23
2022-09-24T23:19:13.664Z,95728.30
2022-09-24T23:21:42.080Z,95723.19
2022-09-24T23:24:17.443Z,95726.75
2022-09-24T23:26:46.078Z,95730.51
2022-09-24T23:29:14.777Z,95728.38
2022-09-24T23:31:43.149Z,95726.42
2022-09-24T23:34:12.732Z,95724.16
2022-09-24T23:36:40.946Z,95725.52
2022-09-24T23:39:09.184Z,95720.38
2022-09-24T23:41:37.397Z,95715.91
2022-09-24T23:44:05.961Z,95715.41
2022-09-24T23:46:34.291Z,95715.83
2022-09-24T23:49:02.958Z,95715.96
2022-09-24T23:51:31.314Z,95717.21
2022-09-24T23:53:59.401Z,95714.69
2022-09-24T23:56:28.493Z,95713.61
2022-09-24T23:58:57.841Z,95715.54
